createdAt,value
2023-04-15T00:00:46.548Z,57.56
2023-04-15T00:02:30.573Z,58.95
2023-04-15T00:04:01.097Z,60.75
2023-04-15T00:05:53.592Z,62.03
2023-04-15T00:07:32.613Z,64.24
2023-04-15T00:08:53.636Z,64.13
2023-04-15T00:10:23.480Z,61.61
2023-04-15T00:12:06.798Z,58.92
2023-04-15T00:13:38.890Z,56.69
2023-04-15T00:15:22.521Z,57.08
2023-04-15T00:16:45.044Z,58.63
2023-04-15T00:18:36.725Z,60.25
2023-04-15T00:20:08.771Z,61.92
2023-04-15T00:21:42.534Z,63.83
2023-04-15T00:23:04.862Z,63.82
2023-04-15T00:24:44.186Z,61.45
2023-04-15T00:26:24.597Z,59.08
2023-04-15T00:28:08.500Z,56.57
2023-04-15T00:29:40.547Z,57.30
2023-04-15T00:31:27.757Z,58.57
2023-04-15T00:33:15.215Z,60.42
2023-04-15T00:34:59.049Z,62.26
2023-04-15T00:36:33.346Z,64.16
2023-04-15T00:37:55.261Z,63.46
2023-04-15T00:39:29.760Z,60.79
2023-04-15T00:41:03.527Z,58.00
2023-04-15T00:42:35.848Z,56.69
2023-04-15T00:44:19.392Z,57.57
2023-04-15T00:45:58.688Z,59.33
2023-04-15T00:47:18.761Z,60.84
2023-04-15T00:48:57.987Z,62.32
2023-04-15T00:50:50.554Z,64.48
2023-04-15T00:52:34.074Z,63.48
2023-04-15T00:54:18.736Z,60.55
2023-04-15T00:56:02.308Z,57.74
2023-04-15T00:57:32.439Z,57.03
2023-04-15T00:59:17.317Z,58.38
2023-04-15T01:01:00.808Z,60.32
2023-04-15T01:02:35.571Z,62.18
2023-04-15T01:04:15.065Z,64.58
2023-04-15T01:05:58.881Z,63.80
2023-04-15T01:07:33.507Z,61.01
2023-04-15T01:08:53.519Z,58.78
2023-04-15T01:10:25.706Z,57.18
2023-04-15T01:12:00.166Z,57.71
2023-04-15T01:13:32.146Z,59.47
2023-04-15T01:15:03.879Z,61.08
2023-04-15T01:16:38.484Z,62.80
2023-04-15T01:18:17.521Z,64.69
2023-04-15T01:20:01.098Z,63.39
2023-04-15T01:21:44.697Z,60.78
2023-04-15T01:23:18.716Z,58.15
2023-04-15T01:24:48.809Z,57.19
2023-04-15T01:26:42.351Z,58.22
2023-04-15T01:28:15.452Z,60.32
2023-04-15T01:29:48.387Z,61.87
2023-04-15T01:31:31.861Z,64.24
2023-04-15T01:33:01.947Z,64.21
2023-04-15T01:34:29.879Z,62.34
2023-04-15T01:36:03.893Z,59.93
2023-04-15T01:37:43.284Z,57.61
2023-04-15T01:39:26.776Z,57.50
2023-04-15T01:41:11.048Z,59.12
2023-04-15T01:42:36.204Z,60.93
2023-04-15T01:44:10.254Z,62.68
2023-04-15T01:45:37.913Z,64.58
2023-04-15T01:47:10.019Z,63.40
2023-04-15T01:48:42.341Z,61.58
2023-04-15T01:50:04.537Z,59.40
2023-04-15T01:51:48.053Z,57.40
2023-04-15T01:53:22.959Z,57.83
2023-04-15T01:54:55.694Z,59.80
2023-04-15T01:56:29.779Z,61.37
2023-04-15T01:58:05.343Z,63.62
2023-04-15T01:59:37.596Z,65.03
2023-04-15T02:01:21.438Z,63.26
2023-04-15T02:03:04.161Z,60.78
2023-04-15T02:04:43.653Z,58.34
2023-04-15T02:06:16.001Z,57.27
2023-04-15T02:07:38.777Z,58.33
2023-04-15T02:09:22.468Z,60.16
2023-04-15T02:10:57.573Z,61.97
2023-04-15T02:12:38.894Z,64.15
2023-04-15T02:14:22.585Z,64.40
2023-04-15T02:15:54.296Z,62.19
2023-04-15T02:17:40.632Z,59.96
2023-04-15T02:19:13.061Z,57.83
2023-04-15T02:21:05.552Z,57.74
2023-04-15T02:22:37.515Z,59.67
2023-04-15T02:24:16.713Z,61.53
2023-04-15T02:25:53.831Z,63.85
2023-04-15T02:27:47.567Z,64.83
2023-04-15T02:29:31.162Z,62.69
2023-04-15T02:31:05.686Z,60.25
2023-04-15T02:32:46.570Z,58.15
2023-04-15T02:34:14.331Z,57.62
2023-04-15T02:35:58.523Z,59.30
2023-04-15T02:37:51.536Z,61.52
2023-04-15T02:39:14.101Z,64.03
2023-04-15T02:40:57.906Z,65.05
2023-04-15T02:42:33.248Z,63.27
2023-04-15T02:44:13.081Z,60.67
2023-04-15T02:45:48.473Z,58.75
2023-04-15T02:47:23.104Z,57.64
2023-04-15T02:49:02.391Z,58.71
2023-04-15T02:50:35.005Z,60.90
2023-04-15T02:52:18.745Z,63.16
2023-04-15T02:53:41.901Z,64.95
2023-04-15T02:55:13.603Z,63.69
2023-04-15T02:57:06.569Z,61.40
2023-04-15T02:58:38.742Z,58.87
2023-04-15T03:00:08.786Z,57.37
2023-04-15T03:01:52.942Z,58.45
2023-04-15T03:03:27.544Z,60.61
2023-04-15T03:05:10.944Z,62.66
2023-04-15T03:06:43.677Z,64.91
2023-04-15T03:08:16.525Z,63.70
2023-04-15T03:10:00.685Z,61.47
2023-04-15T03:11:39.951Z,59.35
2023-04-15T03:13:20.978Z,57.45
2023-04-15T03:15:05.076Z,58.52
2023-04-15T03:16:52.955Z,60.54
2023-04-15T03:18:13.264Z,62.72
2023-04-15T03:19:53.684Z,64.71
2023-04-15T03:21:25.677Z,64.00
2023-04-15T03:23:04.510Z,61.55
2023-04-15T03:24:25.411Z,59.66
2023-04-15T03:25:57.264Z,57.86
2023-04-15T03:27:45.381Z,57.91
2023-04-15T03:29:29.101Z,59.92
2023-04-15T03:31:12.916Z,61.96
2023-04-15T03:32:56.615Z,64.62
2023-04-15T03:34:28.758Z,64.54
2023-04-15T03:35:51.794Z,62.48
2023-04-15T03:37:14.630Z,60.40
2023-04-15T03:39:04.536Z,58.26
2023-04-15T03:40:36.867Z,57.55
2023-04-15T03:42:08.985Z,59.14
2023-04-15T03:43:28.964Z,60.77
2023-04-15T03:45:00.887Z,62.62
2023-04-15T03:46:32.938Z,64.63
2023-04-15T03:47:55.433Z,64.26
2023-04-15T03:49:39.030Z,62.09
2023-04-15T03:51:01.834Z,60.03
2023-04-15T03:52:36.124Z,57.93
2023-04-15T03:54:15.428Z,57.71
2023-04-15T03:55:56.669Z,59.34
2023-04-15T03:57:40.161Z,61.47
2023-04-15T03:59:14.764Z,64.27
2023-04-15T04:00:50.668Z,64.71
2023-04-15T04:02:23.254Z,62.43
2023-04-15T04:03:58.164Z,60.39
2023-04-15T04:05:50.081Z,58.13
2023-04-15T04:07:33.545Z,57.81
2023-04-15T04:09:17.358Z,59.44
2023-04-15T04:11:01.146Z,61.59
2023-04-15T04:12:45.091Z,64.00
2023-04-15T04:14:37.541Z,64.57
2023-04-15T04:16:27.852Z,61.95
2023-04-15T04:18:12.039Z,59.42
2023-04-15T04:19:55.611Z,57.60
2023-04-15T04:21:39.367Z,58.51
2023-04-15T04:23:32.527Z,60.57
2023-04-15T04:25:15.965Z,63.01
2023-04-15T04:26:46.476Z,65.19
2023-04-15T04:28:18.340Z,63.54
2023-04-15T04:29:50.305Z,61.73
2023-04-15T04:31:24.412Z,59.39
2023-04-15T04:32:56.052Z,57.33
2023-04-15T04:34:39.551Z,57.87
2023-04-15T04:36:23.263Z,60.08
2023-04-15T04:38:04.761Z,62.09
2023-04-15T04:39:48.215Z,64.57
2023-04-15T04:41:40.210Z,64.21
2023-04-15T04:43:11.980Z,61.19
2023-04-15T04:44:46.970Z,59.09
2023-04-15T04:46:30.373Z,57.56
2023-04-15T04:48:09.399Z,58.62
2023-04-15T04:49:54.366Z,60.76
2023-04-15T04:51:33.728Z,62.63
2023-04-15T04:53:05.406Z,64.90
2023-04-15T04:54:37.345Z,63.86
2023-04-15T04:56:21.042Z,61.55
2023-04-15T04:58:02.650Z,59.24
2023-04-15T04:59:42.036Z,57.49
2023-04-15T05:01:14.014Z,58.28
2023-04-15T05:05:01.336Z,62.88
2023-04-15T05:08:55.537Z,62.68
2023-04-15T05:10:39.497Z,60.23
2023-04-15T05:12:20.198Z,57.87
2023-04-15T05:14:03.765Z,57.94
2023-04-15T05:15:56.335Z,59.79
2023-04-15T05:17:48.019Z,61.89
2023-04-15T05:19:22.280Z,63.98
2023-04-15T05:20:59.971Z,64.48
2023-04-15T05:22:40.873Z,62.45
2023-04-15T05:24:03.108Z,59.97
2023-04-15T05:25:47.364Z,57.72
2023-04-15T05:27:27.513Z,57.50
2023-04-15T05:29:11.201Z,59.71
2023-04-15T05:30:43.388Z,61.48
2023-04-15T05:32:35.327Z,63.31
2023-04-15T05:34:18.431Z,64.63
2023-04-15T05:35:53.064Z,62.55
2023-04-15T05:37:22.822Z,60.17
2023-04-15T05:38:46.062Z,57.99
2023-04-15T05:40:26.736Z,57.33
2023-04-15T05:42:10.853Z,59.10
2023-04-15T05:43:54.556Z,60.85
2023-04-15T05:45:28.990Z,63.46
2023-04-15T05:47:08.039Z,64.29
2023-04-15T05:48:28.329Z,62.49
2023-04-15T05:50:02.537Z,60.25
2023-04-15T05:51:49.139Z,57.94
2023-04-15T05:53:32.829Z,57.80
2023-04-15T05:55:16.697Z,59.38
2023-04-15T05:56:46.466Z,61.39
2023-04-15T05:58:25.917Z,63.41
2023-04-15T06:01:56.886Z,62.47
2023-04-15T06:03:36.477Z,60.04
2023-04-15T06:05:20.667Z,57.59
2023-04-15T06:06:56.284Z,57.65
2023-04-15T06:08:46.273Z,59.45
2023-04-15T06:10:06.564Z,61.66
2023-04-15T06:11:53.447Z,63.24
2023-04-15T06:13:25.444Z,64.99
2023-04-15T06:15:09.287Z,63.25
2023-04-15T06:16:30.502Z,60.73
2023-04-15T06:17:57.983Z,58.36
2023-04-15T06:19:32.184Z,57.08
2023-04-15T06:21:04.262Z,58.41
2023-04-15T06:22:35.440Z,60.14
2023-04-15T06:24:09.255Z,61.92
2023-04-15T06:25:57.229Z,63.92
2023-04-15T06:27:29.379Z,63.73
2023-04-15T06:29:03.558Z,61.61
2023-04-15T06:30:47.441Z,59.12
2023-04-15T06:32:19.353Z,57.34
2023-04-15T06:34:02.906Z,57.79
2023-04-15T06:35:46.680Z,59.66
2023-04-15T06:37:21.023Z,61.72
2023-04-15T06:39:04.618Z,64.10
2023-04-15T06:40:56.920Z,64.16
2023-04-15T06:42:48.876Z,61.58
2023-04-15T06:44:23.556Z,58.93
2023-04-15T06:45:57.762Z,57.01
2023-04-15T06:47:29.667Z,58.03
2023-04-15T06:49:04.092Z,59.75
2023-04-15T06:50:27.347Z,61.38
2023-04-15T06:51:59.958Z,63.67
2023-04-15T06:53:22.625Z,64.71
2023-04-15T06:55:06.077Z,62.72
2023-04-15T06:56:38.316Z,60.25
2023-04-15T06:58:21.951Z,57.96
2023-04-15T06:59:53.887Z,57.38
2023-04-15T07:01:19.012Z,58.51
2023-04-15T07:03:02.894Z,60.40
2023-04-15T07:04:45.298Z,62.07
2023-04-15T07:06:29.022Z,64.40
2023-04-15T07:07:58.508Z,63.90
2023-04-15T07:09:33.462Z,61.29
2023-04-15T07:10:58.680Z,59.24
2023-04-15T07:12:42.499Z,57.34
2023-04-15T07:14:16.667Z,58.01
2023-04-15T07:15:48.600Z,59.83
2023-04-15T07:17:18.471Z,61.42
2023-04-15T07:18:46.339Z,63.30
2023-04-15T07:20:09.626Z,64.53
2023-04-15T07:21:54.503Z,62.91
2023-04-15T07:23:24.563Z,60.50
2023-04-15T07:24:59.252Z,58.07
2023-04-15T07:26:27.007Z,57.67
2023-04-15T07:28:10.758Z,59.07
2023-04-15T07:30:03.565Z,61.01
2023-04-15T07:31:38.240Z,62.85
2023-04-15T07:33:04.110Z,64.32
2023-04-15T07:34:44.312Z,63.05
2023-04-15T07:36:12.533Z,60.60
2023-04-15T07:37:47.024Z,58.66
2023-04-15T07:39:30.427Z,57.04
2023-04-15T07:41:14.812Z,58.28
2023-04-15T07:42:50.552Z,60.04
2023-04-15T07:44:43.556Z,62.29
2023-04-15T07:46:27.148Z,64.49
2023-04-15T07:48:11.528Z,63.27
2023-04-15T07:49:55.392Z,60.48
2023-04-15T07:51:48.559Z,57.89
2023-04-15T07:53:40.514Z,57.29
2023-04-15T07:55:23.896Z,59.25
2023-04-15T07:56:58.073Z,61.22
2023-04-15T07:58:32.327Z,63.18
2023-04-15T08:00:17.737Z,64.65
2023-04-15T08:02:01.711Z,62.87
2023-04-15T08:03:45.419Z,60.38
2023-04-15T08:05:28.904Z,57.71
2023-04-15T08:07:03.320Z,57.45
2023-04-15T08:08:37.874Z,59.30
2023-04-15T08:10:00.465Z,60.79
2023-04-15T08:11:28.244Z,62.58
2023-04-15T08:13:00.725Z,64.63
2023-04-15T08:14:33.401Z,63.79
2023-04-15T08:16:17.195Z,61.16
2023-04-15T08:17:49.743Z,58.74
2023-04-15T08:19:28.848Z,57.14
2023-04-15T08:21:07.881Z,58.19
2023-04-15T08:23:00.043Z,60.27
2023-04-15T08:24:39.526Z,62.49
2023-04-15T08:26:07.605Z,64.49
2023-04-15T08:27:37.138Z,63.69
2023-04-15T08:29:00.194Z,61.71
2023-04-15T08:30:32.591Z,59.83
2023-04-15T08:32:07.448Z,57.41
2023-04-15T08:33:51.324Z,57.53
2023-04-15T08:35:23.282Z,59.25
2023-04-15T08:36:46.924Z,60.95
2023-04-15T08:38:26.204Z,62.58
2023-04-15T08:39:58.209Z,64.48
2023-04-15T08:41:49.845Z,63.85
2023-04-15T08:43:35.129Z,60.97
2023-04-15T08:45:04.997Z,58.76
2023-04-15T08:46:49.189Z,57.02
2023-04-15T08:48:23.751Z,58.39
2023-04-15T08:49:55.890Z,59.91
2023-04-15T08:51:25.830Z,61.82
2023-04-15T08:52:57.753Z,63.81
2023-04-15T08:54:33.021Z,64.73
2023-04-15T08:56:03.018Z,62.45
2023-04-15T08:57:43.684Z,60.18
2023-04-15T08:59:06.341Z,58.04
2023-04-15T09:00:46.814Z,57.30
2023-04-15T09:02:30.504Z,58.52
2023-04-15T09:04:02.417Z,60.51
2023-04-15T09:05:36.438Z,62.84
2023-04-15T09:07:08.116Z,64.74
2023-04-15T09:08:35.953Z,63.54
2023-04-15T09:10:15.556Z,61.31
2023-04-15T09:11:59.016Z,58.59
2023-04-15T09:13:47.641Z,56.91
2023-04-15T09:15:21.660Z,58.60
2023-04-15T09:16:53.791Z,60.20
2023-04-15T09:18:37.503Z,62.76
2023-04-15T09:20:12.399Z,63.85
2023-04-15T09:21:34.150Z,62.57
2023-04-15T09:23:07.621Z,60.38
2023-04-15T09:24:53.122Z,58.13
2023-04-15T09:26:15.992Z,57.03
2023-04-15T09:27:48.506Z,58.34
2023-04-15T09:29:08.576Z,60.24
2023-04-15T09:30:52.072Z,62.00
2023-04-15T09:32:43.990Z,63.40
2023-04-15T09:34:18.089Z,62.47
2023-04-15T09:35:40.666Z,60.51
2023-04-15T09:37:31.743Z,58.41
2023-04-15T09:39:16.074Z,56.36
2023-04-15T09:40:48.280Z,57.84
2023-04-15T09:42:10.788Z,59.76
2023-04-15T09:43:42.971Z,61.54
2023-04-15T09:45:29.363Z,63.37
2023-04-15T09:47:02.460Z,64.18
2023-04-15T09:48:34.606Z,61.50
2023-04-15T09:50:06.281Z,58.42
2023-04-15T09:52:05.056Z,56.77
2023-04-15T09:53:48.584Z,57.74
2023-04-15T09:55:32.154Z,59.92
2023-04-15T09:57:11.692Z,61.26
2023-04-15T09:58:51.171Z,62.91
2023-04-15T10:00:26.261Z,64.13
2023-04-15T10:02:01.021Z,62.20
2023-04-15T10:03:45.223Z,59.25
2023-04-15T10:05:13.286Z,57.30
2023-04-15T10:06:45.806Z,57.32
2023-04-15T10:08:18.293Z,58.49
2023-04-15T10:09:46.348Z,59.81
2023-04-15T10:11:30.428Z,61.26
2023-04-15T10:13:05.754Z,62.86
2023-04-15T10:14:27.646Z,64.33
2023-04-15T10:15:58.832Z,62.85
2023-04-15T10:17:33.060Z,60.30
2023-04-15T10:19:01.242Z,57.80
2023-04-15T10:20:31.352Z,57.40
2023-04-15T10:22:01.507Z,58.46
2023-04-15T10:23:41.204Z,60.24
2023-04-15T10:25:15.919Z,61.49
2023-04-15T10:26:47.869Z,63.46
2023-04-15T10:28:40.065Z,63.83
2023-04-15T10:30:23.889Z,60.91
2023-04-15T10:32:00.420Z,58.77
2023-04-15T10:33:44.632Z,56.70
2023-04-15T10:35:27.931Z,56.99
2023-04-15T10:37:12.507Z,58.97
2023-04-15T10:38:47.746Z,60.33
2023-04-15T10:40:33.594Z,61.29
2023-04-15T10:41:54.084Z,62.68
2023-04-15T10:43:16.545Z,63.98
2023-04-15T10:44:52.164Z,62.39
2023-04-15T10:46:26.128Z,60.13
2023-04-15T10:48:09.685Z,57.80
2023-04-15T10:49:52.089Z,57.84
2023-04-15T10:51:44.580Z,58.94
2023-04-15T10:53:16.417Z,60.55
2023-04-15T10:54:48.209Z,61.82
2023-04-15T10:56:38.238Z,62.67
2023-04-15T10:58:17.569Z,63.60
2023-04-15T11:00:01.183Z,61.51
2023-04-15T11:01:46.098Z,58.57
2023-04-15T11:03:14.103Z,56.83
2023-04-15T11:04:53.780Z,58.00
2023-04-15T11:06:37.728Z,60.86
2023-04-15T11:07:58.005Z,61.11
2023-04-15T11:09:41.237Z,61.26
2023-04-15T11:11:24.668Z,61.82
2023-04-15T11:12:58.816Z,63.08
2023-04-15T11:14:30.458Z,63.22
2023-04-15T11:16:13.949Z,61.24
2023-04-15T11:17:36.840Z,59.04
2023-04-15T11:19:08.426Z,56.51
2023-04-15T11:21:02.622Z,56.81
2023-04-15T11:22:51.235Z,58.31
2023-04-15T11:24:34.554Z,60.25
2023-04-15T11:26:09.514Z,61.16
2023-04-15T11:27:49.344Z,62.11
2023-04-15T11:29:21.384Z,63.11
2023-04-15T11:30:55.622Z,62.27
2023-04-15T11:32:27.581Z,60.14
2023-04-15T11:34:01.860Z,57.25
2023-04-15T11:35:45.646Z,56.17
2023-04-15T11:37:17.354Z,57.07
2023-04-15T11:38:49.664Z,58.56
2023-04-15T11:40:23.787Z,59.51
2023-04-15T11:42:07.093Z,60.39
2023-04-15T11:43:41.846Z,61.63
2023-04-15T11:45:18.171Z,63.81
2023-04-15T11:47:01.825Z,63.77
2023-04-15T11:48:33.738Z,61.16
2023-04-15T11:50:17.190Z,58.36
2023-04-15T11:51:56.724Z,56.56
2023-04-15T11:53:40.450Z,57.02
2023-04-15T11:55:23.795Z,58.32
2023-04-15T11:57:07.586Z,59.61
2023-04-15T11:58:51.576Z,60.97
2023-04-15T12:00:35.332Z,62.52
2023-04-15T12:02:14.883Z,63.57
2023-04-15T12:03:59.037Z,61.32
2023-04-15T12:05:42.873Z,58.40
2023-04-15T12:07:12.324Z,56.56
2023-04-15T12:08:48.044Z,57.47
2023-04-15T12:10:31.448Z,58.82
2023-04-15T12:12:13.142Z,59.92
2023-04-15T12:13:45.512Z,60.89
2023-04-15T12:15:38.654Z,61.35
2023-04-15T12:17:22.497Z,60.96
2023-04-15T12:19:09.957Z,61.43
2023-04-15T12:20:53.911Z,62.04
2023-04-15T12:22:26.339Z,63.25
2023-04-15T12:23:58.664Z,63.15
2023-04-15T12:25:32.400Z,60.80
2023-04-15T12:26:55.260Z,58.38
2023-04-15T12:28:26.981Z,56.92
2023-04-15T12:30:10.022Z,57.19
2023-04-15T12:31:49.473Z,59.31
2023-04-15T12:33:16.974Z,61.60
2023-04-15T12:34:37.333Z,63.18
2023-04-15T12:36:05.049Z,63.89
2023-04-15T12:37:48.992Z,62.02
2023-04-15T12:39:11.335Z,60.59
2023-04-15T12:40:48.710Z,57.77
2023-04-15T12:42:21.803Z,57.37
2023-04-15T12:44:00.924Z,58.93
2023-04-15T12:45:33.045Z,60.37
2023-04-15T12:47:07.359Z,62.22
2023-04-15T12:48:47.776Z,64.05
2023-04-15T12:50:21.626Z,63.93
2023-04-15T12:51:55.660Z,61.25
2023-04-15T12:53:25.895Z,58.20
2023-04-15T12:54:46.232Z,56.84
2023-04-15T12:56:29.740Z,58.43
2023-04-15T12:58:13.141Z,60.61
2023-04-15T12:59:35.750Z,61.85
2023-04-15T13:01:10.143Z,63.33
2023-04-15T13:02:50.122Z,65.10
2023-04-15T13:04:32.122Z,62.95
2023-04-15T13:05:52.921Z,59.67
2023-04-15T13:07:22.895Z,57.86
2023-04-15T13:09:03.975Z,57.82
2023-04-15T13:10:38.758Z,59.63
2023-04-15T13:12:22.362Z,61.82
2023-04-15T13:14:13.663Z,64.25
2023-04-15T13:15:44.958Z,63.68
2023-04-15T13:17:28.963Z,61.07
2023-04-15T13:19:08.036Z,58.02
2023-04-15T13:20:45.552Z,56.28
2023-04-15T13:22:17.440Z,57.58
2023-04-15T13:24:02.229Z,59.43
2023-04-15T13:25:54.306Z,60.90
2023-04-15T13:27:25.881Z,62.52
2023-04-15T13:29:08.907Z,64.96
2023-04-15T13:30:52.913Z,63.29
2023-04-15T13:32:38.826Z,60.40
2023-04-15T13:34:10.244Z,57.38
2023-04-15T13:35:51.604Z,56.76
2023-04-15T13:37:26.037Z,57.89
2023-04-15T13:39:09.347Z,59.87
2023-04-15T13:40:41.552Z,61.82
2023-04-15T13:42:21.152Z,63.78
2023-04-15T13:44:05.221Z,64.19
2023-04-15T13:45:49.440Z,61.69
2023-04-15T13:47:21.479Z,59.61
2023-04-15T13:48:55.877Z,57.19
2023-04-15T13:50:28.806Z,56.53
2023-04-15T13:52:00.608Z,57.73
2023-04-15T13:53:40.777Z,59.61
2023-04-15T13:55:08.270Z,61.46
2023-04-15T13:57:03.777Z,64.22
2023-04-15T13:58:47.770Z,64.70
2023-04-15T14:00:31.120Z,61.75
2023-04-15T14:02:14.800Z,59.57
2023-04-15T14:03:35.878Z,57.19
2023-04-15T14:05:19.690Z,56.52
2023-04-15T14:07:05.071Z,58.07
2023-04-15T14:08:25.636Z,59.97
2023-04-15T14:09:59.996Z,61.65
2023-04-15T14:11:44.852Z,63.39
2023-04-15T14:13:18.712Z,64.01
2023-04-15T14:14:52.958Z,61.78
2023-04-15T14:16:22.423Z,59.43
2023-04-15T14:17:43.319Z,57.46
2023-04-15T14:19:17.245Z,57.13
2023-04-15T14:20:49.440Z,58.92
2023-04-15T14:22:11.812Z,59.68
2023-04-15T14:23:43.963Z,61.17
2023-04-15T14:25:30.513Z,64.04
2023-04-15T14:26:57.098Z,64.76
2023-04-15T14:28:31.359Z,62.21
2023-04-15T14:30:05.306Z,59.93
2023-04-15T14:32:11.552Z,57.33
2023-04-15T14:33:43.336Z,58.31
2023-04-15T14:35:26.859Z,59.88
2023-04-15T14:37:13.270Z,61.79
2023-04-15T14:38:56.848Z,64.25
2023-04-15T14:40:42.563Z,64.87
2023-04-15T14:42:14.528Z,62.99
2023-04-15T14:45:51.996Z,57.58
2023-04-15T14:47:27.281Z,58.04
2023-04-15T14:49:00.770Z,60.09
2023-04-15T14:50:54.777Z,62.33
2023-04-15T14:52:28.282Z,63.44
2023-04-15T14:54:04.854Z,62.34
2023-04-15T14:55:52.020Z,59.87
2023-04-15T14:57:25.493Z,57.16
2023-04-15T14:59:01.744Z,57.44
2023-04-15T15:00:55.090Z,59.23
2023-04-15T15:02:40.613Z,60.92
2023-04-15T15:04:16.271Z,63.12
2023-04-15T15:06:01.754Z,64.42
2023-04-15T15:07:43.530Z,62.61
2023-04-15T15:09:37.746Z,60.29
2023-04-15T15:11:01.941Z,57.93
2023-04-15T15:12:56.756Z,57.75
2023-04-15T15:14:41.714Z,59.09
2023-04-15T15:16:28.927Z,61.23
2023-04-15T15:18:04.843Z,63.99
2023-04-15T15:19:59.759Z,64.58
2023-04-15T15:21:44.672Z,61.90
2023-04-15T15:23:18.238Z,59.61
2023-04-15T15:24:59.144Z,57.28
2023-04-15T15:26:43.898Z,57.94
2023-04-15T15:28:31.608Z,59.97
2023-04-15T15:30:16.483Z,62.00
2023-04-15T15:31:57.554Z,64.16
2023-04-15T15:33:33.254Z,63.53
2023-04-15T15:35:08.950Z,61.45
2023-04-15T15:36:44.828Z,59.30
2023-04-15T15:38:30.150Z,57.81
2023-04-15T15:39:55.010Z,58.75
2023-04-15T15:41:28.222Z,60.59
2023-04-15T15:43:09.152Z,62.48
2023-04-15T15:44:45.405Z,63.31
2023-04-15T15:46:25.792Z,62.02
2023-04-15T15:48:19.106Z,59.57
2023-04-15T15:49:54.812Z,57.29
2023-04-15T15:51:48.528Z,57.91
2023-04-15T15:53:24.240Z,60.00
2023-04-15T15:55:09.078Z,62.13
2023-04-15T15:56:53.047Z,64.52
2023-04-15T15:58:46.495Z,64.07
2023-04-15T16:00:15.833Z,60.99
2023-04-15T16:01:57.526Z,58.45
2023-04-15T16:03:26.947Z,57.05
2023-04-15T16:05:01.807Z,58.11
2023-04-15T16:06:55.683Z,60.33
2023-04-15T16:08:24.836Z,62.47
2023-04-15T16:09:54.848Z,64.60
2023-04-15T16:11:31.000Z,63.31
2023-04-15T16:13:07.248Z,61.06
2023-04-15T16:14:52.682Z,58.87
2023-04-15T16:16:38.097Z,57.51
2023-04-15T16:18:13.383Z,58.93
2023-04-15T16:19:57.932Z,60.74
2023-04-15T16:21:36.097Z,62.62
2023-04-15T16:23:09.186Z,65.03
2023-04-15T16:24:45.114Z,64.36
2023-04-15T16:26:18.823Z,62.06
2023-04-15T16:28:08.324Z,60.06
2023-04-15T16:29:57.026Z,57.69
2023-04-15T16:31:32.250Z,58.32
2023-04-15T16:33:05.421Z,60.10
2023-04-15T16:34:42.410Z,61.97
2023-04-15T16:36:08.765Z,64.21
2023-04-15T16:37:44.923Z,64.58
2023-04-15T16:39:16.170Z,62.52
2023-04-15T16:41:01.563Z,60.16
2023-04-15T16:42:47.040Z,57.84
2023-04-15T16:44:36.921Z,57.94
2023-04-15T16:46:30.854Z,59.98
2023-04-15T16:48:11.484Z,61.97
2023-04-15T16:49:45.977Z,64.45
2023-04-15T16:51:31.890Z,64.25
2023-04-15T16:53:22.044Z,61.88
2023-04-15T16:54:53.924Z,59.40
2023-04-15T16:56:29.475Z,57.38
2023-04-15T16:58:22.731Z,58.04
2023-04-15T17:00:07.710Z,60.16
2023-04-15T17:01:53.479Z,62.42
2023-04-15T17:03:39.531Z,65.03
2023-04-15T17:05:13.207Z,64.02
2023-04-15T17:06:58.598Z,61.63
2023-04-15T17:08:27.804Z,59.56
2023-04-15T17:09:56.870Z,57.87
2023-04-15T17:11:50.448Z,58.26
2023-04-15T17:13:26.738Z,60.38
2023-04-15T17:15:02.313Z,62.51
2023-04-15T17:16:48.014Z,64.71
2023-04-15T17:18:28.265Z,64.28
2023-04-15T17:19:50.603Z,62.24
2023-04-15T17:21:14.289Z,60.50
2023-04-15T17:22:50.188Z,58.52
2023-04-15T17:24:36.961Z,57.76
2023-04-15T17:26:22.535Z,59.47
2023-04-15T17:28:08.021Z,61.92
2023-04-15T17:29:53.664Z,64.89
2023-04-15T17:31:46.537Z,64.68
2023-04-15T17:33:54.205Z,61.95
2023-04-15T17:35:35.764Z,59.47
2023-04-15T17:37:18.842Z,57.59
2023-04-15T17:38:52.727Z,58.90
2023-04-15T17:40:37.620Z,61.13
2023-04-15T17:42:09.124Z,63.60
2023-04-15T17:43:33.124Z,64.68
2023-04-15T17:44:55.131Z,63.39
2023-04-15T17:46:19.286Z,61.16
2023-04-15T17:48:08.625Z,58.70
2023-04-15T17:49:54.578Z,57.16
2023-04-15T17:51:20.416Z,58.57
2023-04-15T17:52:42.662Z,60.37
2023-04-15T17:54:18.384Z,62.03
2023-04-15T17:55:56.723Z,64.23
2023-04-15T17:57:30.385Z,64.41
2023-04-15T17:59:15.442Z,62.36
2023-04-15T18:00:37.885Z,60.05
2023-04-15T18:01:59.845Z,58.19
2023-04-15T18:03:41.090Z,57.65
2023-04-15T18:05:26.669Z,59.23
2023-04-15T18:06:49.190Z,61.21
2023-04-15T18:08:34.389Z,63.31
2023-04-15T18:10:08.209Z,65.06
2023-04-15T18:11:57.108Z,63.02
2023-04-15T18:13:43.694Z,60.29
2023-04-15T18:15:20.343Z,57.55
2023-04-15T18:17:06.008Z,57.50
2023-04-15T18:18:52.261Z,59.24
2023-04-15T18:20:38.079Z,61.27
2023-04-15T18:22:23.953Z,63.48
2023-04-15T18:23:57.645Z,64.77
2023-04-15T18:25:51.609Z,62.84
2023-04-15T18:27:27.688Z,59.77
2023-04-15T18:29:13.128Z,57.27
2023-04-15T18:30:56.988Z,57.53
2023-04-15T18:32:38.400Z,59.37
2023-04-15T18:34:12.361Z,60.83
2023-04-15T18:35:54.872Z,62.38
2023-04-15T18:37:33.646Z,64.90
2023-04-15T18:39:19.838Z,63.24
2023-04-15T18:41:05.861Z,60.20
2023-04-15T18:42:40.616Z,57.47
2023-04-15T18:44:14.278Z,57.85
2023-04-15T18:45:57.518Z,58.89
2023-04-15T18:47:50.924Z,61.02
2023-04-15T18:49:15.396Z,62.86
2023-04-15T18:50:39.816Z,64.49
2023-04-15T18:52:20.403Z,63.17
2023-04-15T18:53:50.261Z,60.76
2023-04-15T18:55:24.284Z,58.65
2023-04-15T18:57:09.685Z,57.32
2023-04-15T18:59:18.220Z,58.84
2023-04-15T19:00:42.038Z,60.78
2023-04-15T19:02:35.778Z,63.11
2023-04-15T19:04:12.617Z,65.27
2023-04-15T19:05:46.466Z,63.54
2023-04-15T19:07:27.390Z,61.06
2023-04-15T19:09:03.438Z,59.29
2023-04-15T19:10:25.663Z,57.75
2023-04-15T19:12:12.155Z,58.87
2023-04-15T19:13:57.753Z,60.65
2023-04-15T19:15:52.834Z,62.81
2023-04-15T19:17:28.999Z,63.93
2023-04-15T19:19:23.774Z,61.94
2023-04-15T19:20:57.243Z,59.98
2023-04-15T19:22:31.230Z,57.86
2023-04-15T19:24:21.667Z,57.28
2023-04-15T19:25:58.657Z,59.38
2023-04-15T19:27:44.692Z,61.27
2023-04-15T19:29:38.923Z,63.92
2023-04-15T19:31:15.245Z,64.68
2023-04-15T19:32:49.145Z,61.97
2023-04-15T19:34:25.617Z,59.68
2023-04-15T19:35:59.249Z,57.52
2023-04-15T19:37:34.535Z,57.85
2023-04-15T19:39:21.879Z,59.65
2023-04-15T19:40:47.111Z,61.49
2023-04-15T19:42:27.812Z,63.73
2023-04-15T19:44:13.100Z,64.93
2023-04-15T19:45:54.659Z,62.55
2023-04-15T19:59:03.124Z,60.70
2023-04-15T20:00:36.770Z,57.89
2023-04-15T20:02:22.718Z,57.27
2023-04-15T20:04:09.061Z,56.62
2023-04-15T20:06:04.073Z,60.35
2023-04-15T20:07:59.952Z,63.47
2023-04-15T20:09:45.638Z,64.58
2023-04-15T20:12:09.485Z,61.90
2023-04-15T20:13:42.179Z,57.97
2023-04-15T20:15:27.205Z,57.57
2023-04-15T20:17:23.041Z,58.91
2023-04-15T20:19:16.196Z,61.44
2023-04-15T20:21:06.811Z,64.79
2023-04-15T20:22:53.222Z,63.96
2023-04-15T20:24:15.431Z,61.43
2023-04-15T20:26:00.955Z,59.03
2023-04-15T20:27:56.140Z,57.01
2023-04-15T20:29:43.364Z,58.57
2023-04-15T20:31:26.107Z,60.57
2023-04-15T20:33:11.573Z,63.19
2023-04-15T20:34:51.738Z,64.37
2023-04-15T20:36:36.697Z,62.05
2023-04-15T20:38:22.440Z,59.22
2023-04-15T20:39:56.229Z,56.66
2023-04-15T20:41:30.520Z,57.30
2023-04-15T20:43:15.867Z,59.65
2023-04-15T20:44:40.284Z,61.30
2023-04-15T20:46:20.392Z,63.20
2023-04-15T20:47:56.037Z,64.42
2023-04-15T20:49:30.420Z,62.48
2023-04-15T20:50:52.591Z,59.68
2023-04-15T20:52:38.765Z,56.95
2023-04-15T20:54:24.002Z,57.19
2023-04-15T20:56:00.372Z,58.90
2023-04-15T20:57:33.685Z,60.72
2023-04-15T20:59:07.843Z,62.57
2023-04-15T21:00:50.184Z,64.71
2023-04-15T21:02:12.380Z,63.41
2023-04-15T21:03:42.255Z,61.01
2023-04-15T21:05:19.694Z,58.14
2023-04-15T21:07:08.124Z,57.04
2023-04-15T21:08:53.796Z,58.81
2023-04-15T21:10:34.974Z,61.03
2023-04-15T21:12:19.992Z,63.09
2023-04-15T21:14:14.308Z,64.48
2023-04-15T21:16:00.658Z,61.86
2023-04-15T21:17:35.654Z,59.16
2023-04-15T21:19:17.643Z,57.06
2023-04-15T21:20:52.990Z,57.72
2023-04-15T21:22:39.057Z,59.35
2023-04-15T21:24:13.259Z,61.23